sensor_id;sensor_type;location;lat;lon;timestamp;temperature;humidity
41876;DHT22;27555;50.808;4.402;2023-07-02T00:01:40;18.30;99.90
41876;DHT22;27555;50.808;4.402;2023-07-02T00:04:06;18.20;99.90
41876;DHT22;27555;50.808;4.402;2023-07-02T00:06:34;18.30;99.90
41876;DHT22;27555;50.808;4.402;2023-07-02T00:09:09;18.30;99.90
41876;DHT22;27555;50.808;4.402;2023-07-02T00:11:38;18.30;99.90
41876;DHT22;27555;50.808;4.402;2023-07-02T00:14:05;18.20;99.90
41876;DHT22;27555;50.808;4.402;2023-07-02T00:16:31;18.10;99.90
41876;DHT22;27555;50.808;4.402;2023-07-02T00:18:56;18.00;99.90
41876;DHT22;27555;50.808;4.402;2023-07-02T00:21:22;18.20;99.90
41876;DHT22;27555;50.808;4.402;2023-07-02T00:23:56;18.20;99.90
41876;DHT22;27555;50.808;4.402;2023-07-02T00:26:26;18.20;99.90
41876;DHT22;27555;50.808;4.402;2023-07-02T00:28:53;18.10;99.90
41876;DHT22;27555;50.808;4.402;2023-07-02T00:31:19;18.20;99.90
41876;DHT22;27555;50.808;4.402;2023-07-02T00:33:44;18.40;99.90
41876;DHT22;27555;50.808;4.402;2023-07-02T00:36:10;18.10;99.90
41876;DHT22;27555;50.808;4.402;2023-07-02T00:38:49;18.30;99.90
41876;DHT22;27555;50.808;4.402;2023-07-02T00:41:15;18.20;99.90
41876;DHT22;27555;50.808;4.402;2023-07-02T00:43:41;18.20;99.90
41876;DHT22;27555;50.808;4.402;2023-07-02T00:46:17;18.10;99.90
41876;DHT22;27555;50.808;4.402;2023-07-02T00:48:46;18.10;99.90
41876;DHT22;27555;50.808;4.402;2023-07-02T00:51:26;18.10;99.90
41876;DHT22;27555;50.808;4.402;2023-07-02T00:53:54;18.10;99.90
41876;DHT22;27555;50.808;4.402;2023-07-02T00:56:21;17.90;99.90
41876;DHT22;27555;50.808;4.402;2023-07-02T00:58:48;17.90;99.90
41876;DHT22;27555;50.808;4.402;2023-07-02T01:01:23;17.90;99.90
41876;DHT22;27555;50.808;4.402;2023-07-02T01:04:08;18.00;99.90
41876;DHT22;27555;50.808;4.402;2023-07-02T01:06:36;18.10;99.90
41876;DHT22;27555;50.808;4.402;2023-07-02T01:09:03;18.10;99.90
41876;DHT22;27555;50.808;4.402;2023-07-02T01:11:36;18.20;99.90
41876;DHT22;27555;50.808;4.402;2023-07-02T01:14:07;18.20;99.90
41876;DHT22;27555;50.808;4.402;2023-07-02T01:16:34;18.00;99.90
41876;DHT22;27555;50.808;4.402;2023-07-02T01:19:04;17.90;99.90
41876;DHT22;27555;50.808;4.402;2023-07-02T01:21:33;17.90;99.90
41876;DHT22;27555;50.808;4.402;2023-07-02T01:24:00;18.00;99.90
41876;DHT22;27555;50.808;4.402;2023-07-02T01:26:31;17.90;99.90
41876;DHT22;27555;50.808;4.402;2023-07-02T01:29:18;17.90;99.90
41876;DHT22;27555;50.808;4.402;2023-07-02T01:31:45;17.90;99.90
41876;DHT22;27555;50.808;4.402;2023-07-02T01:34:11;18.20;99.90
41876;DHT22;27555;50.808;4.402;2023-07-02T01:36:37;18.20;99.90
41876;DHT22;27555;50.808;4.402;2023-07-02T01:39:03;18.20;99.90
41876;DHT22;27555;50.808;4.402;2023-07-02T01:41:29;18.20;99.90
41876;DHT22;27555;50.808;4.402;2023-07-02T01:43:55;18.20;99.90
41876;DHT22;27555;50.808;4.402;2023-07-02T01:46:21;18.10;99.90
41876;DHT22;27555;50.808;4.402;2023-07-02T01:48:46;18.00;99.90
41876;DHT22;27555;50.808;4.402;2023-07-02T01:51:12;18.10;99.90
41876;DHT22;27555;50.808;4.402;2023-07-02T01:53:39;18.30;99.90
41876;DHT22;27555;50.808;4.402;2023-07-02T01:56:05;18.20;99.90
41876;DHT22;27555;50.808;4.402;2023-07-02T01:58:30;18.30;99.90
41876;DHT22;27555;50.808;4.402;2023-07-02T02:00:56;18.20;99.90
41876;DHT22;27555;50.808;4.402;2023-07-02T02:03:22;18.20;99.90
41876;DHT22;27555;50.808;4.402;2023-07-02T02:05:47;18.10;99.90
41876;DHT22;27555;50.808;4.402;2023-07-02T02:08:13;18.10;99.90
41876;DHT22;27555;50.808;4.402;2023-07-02T02:10:39;18.30;99.90
41876;DHT22;27555;50.808;4.402;2023-07-02T02:13:04;18.20;99.90
41876;DHT22;27555;50.808;4.402;2023-07-02T02:15:30;18.10;99.90
41876;DHT22;27555;50.808;4.402;2023-07-02T02:17:56;18.20;99.90
41876;DHT22;27555;50.808;4.402;2023-07-02T02:20:21;18.20;99.90
41876;DHT22;27555;50.808;4.402;2023-07-02T02:22:47;18.10;99.90
41876;DHT22;27555;50.808;4.402;2023-07-02T02:25:12;18.00;99.90
41876;DHT22;27555;50.808;4.402;2023-07-02T02:27:38;18.10;99.90
41876;DHT22;27555;50.808;4.402;2023-07-02T02:30:05;17.90;99.90
41876;DHT22;27555;50.808;4.402;2023-07-02T02:32:30;17.80;99.90
41876;DHT22;27555;50.808;4.402;2023-07-02T02:34:56;17.90;99.90
41876;DHT22;27555;50.808;4.402;2023-07-02T02:37:21;17.80;99.90
41876;DHT22;27555;50.808;4.402;2023-07-02T02:39:48;17.80;99.90
41876;DHT22;27555;50.808;4.402;2023-07-02T02:42:14;17.80;99.90
41876;DHT22;27555;50.808;4.402;2023-07-02T02:44:40;17.80;99.90
41876;DHT22;27555;50.808;4.402;2023-07-02T02:47:05;17.90;99.90
41876;DHT22;27555;50.808;4.402;2023-07-02T02:49:31;17.80;99.90
41876;DHT22;27555;50.808;4.402;2023-07-02T02:51:57;18.00;99.90
41876;DHT22;27555;50.808;4.402;2023-07-02T02:54:22;17.70;99.90
41876;DHT22;27555;50.808;4.402;2023-07-02T02:56:48;17.80;99.90
41876;DHT22;27555;50.808;4.402;2023-07-02T02:59:13;17.70;99.90
41876;DHT22;27555;50.808;4.402;2023-07-02T03:01:39;17.70;99.90
41876;DHT22;27555;50.808;4.402;2023-07-02T03:04:04;17.80;99.90
41876;DHT22;27555;50.808;4.402;2023-07-02T03:06:33;17.80;99.90
41876;DHT22;27555;50.808;4.402;2023-07-02T03:08:59;17.70;99.90
41876;DHT22;27555;50.808;4.402;2023-07-02T03:11:24;17.70;99.90
41876;DHT22;27555;50.808;4.402;2023-07-02T03:13:50;17.60;99.90
41876;DHT22;27555;50.808;4.402;2023-07-02T03:16:16;17.70;99.90
41876;DHT22;27555;50.808;4.402;2023-07-02T03:18:41;17.60;99.90
41876;DHT22;27555;50.808;4.402;2023-07-02T03:21:07;17.70;99.90
41876;DHT22;27555;50.808;4.402;2023-07-02T03:23:32;17.70;99.90
41876;DHT22;27555;50.808;4.402;2023-07-02T03:25:58;17.70;99.90
41876;DHT22;27555;50.808;4.402;2023-07-02T03:28:23;17.80;99.90
41876;DHT22;27555;50.808;4.402;2023-07-02T03:30:49;17.80;99.90
41876;DHT22;27555;50.808;4.402;2023-07-02T03:33:14;17.80;99.90
41876;DHT22;27555;50.808;4.402;2023-07-02T03:35:40;17.80;99.90
41876;DHT22;27555;50.808;4.402;2023-07-02T03:38:05;17.70;99.90
41876;DHT22;27555;50.808;4.402;2023-07-02T03:40:31;17.60;99.90
41876;DHT22;27555;50.808;4.402;2023-07-02T03:42:57;17.50;99.90
41876;DHT22;27555;50.808;4.402;2023-07-02T03:45:23;17.60;99.90
41876;DHT22;27555;50.808;4.402;2023-07-02T03:47:48;17.60;99.90
41876;DHT22;27555;50.808;4.402;2023-07-02T03:50:14;17.40;99.90
41876;DHT22;27555;50.808;4.402;2023-07-02T03:52:39;17.40;99.90
41876;DHT22;27555;50.808;4.402;2023-07-02T03:55:05;17.40;99.90
41876;DHT22;27555;50.808;4.402;2023-07-02T03:57:31;17.20;99.90
41876;DHT22;27555;50.808;4.402;2023-07-02T03:59:57;17.10;99.90
41876;DHT22;27555;50.808;4.402;2023-07-02T04:02:22;17.30;99.90
41876;DHT22;27555;50.808;4.402;2023-07-02T04:04:48;17.40;99.90
41876;DHT22;27555;50.808;4.402;2023-07-02T04:07:13;17.50;99.90
41876;DHT22;27555;50.808;4.402;2023-07-02T04:09:39;17.50;99.90
41876;DHT22;27555;50.808;4.402;2023-07-02T04:12:05;17.50;99.90
41876;DHT22;27555;50.808;4.402;2023-07-02T04:14:30;17.60;99.90
41876;DHT22;27555;50.808;4.402;2023-07-02T04:16:56;17.50;99.90
41876;DHT22;27555;50.808;4.402;2023-07-02T04:19:22;17.40;99.90
41876;DHT22;27555;50.808;4.402;2023-07-02T04:21:47;17.30;99.90
41876;DHT22;27555;50.808;4.402;2023-07-02T04:24:13;17.40;99.90
41876;DHT22;27555;50.808;4.402;2023-07-02T04:26:38;17.40;99.90
41876;DHT22;27555;50.808;4.402;2023-07-02T04:29:08;17.50;99.90
41876;DHT22;27555;50.808;4.402;2023-07-02T04:31:34;17.40;99.90
41876;DHT22;27555;50.808;4.402;2023-07-02T04:34:00;17.30;99.90
41876;DHT22;27555;50.808;4.402;2023-07-02T04:36:26;17.30;99.90
41876;DHT22;27555;50.808;4.402;2023-07-02T04:38:51;17.40;99.90
41876;DHT22;27555;50.808;4.402;2023-07-02T04:41:18;17.60;99.90
41876;DHT22;27555;50.808;4.402;2023-07-02T04:43:44;17.60;99.90
41876;DHT22;27555;50.808;4.402;2023-07-02T04:46:11;17.80;99.90
41876;DHT22;27555;50.808;4.402;2023-07-02T04:48:38;17.80;99.90
41876;DHT22;27555;50.808;4.402;2023-07-02T04:51:03;17.70;99.90
41876;DHT22;27555;50.808;4.402;2023-07-02T04:53:29;17.90;99.90
41876;DHT22;27555;50.808;4.402;2023-07-02T04:55:54;17.90;99.90
41876;DHT22;27555;50.808;4.402;2023-07-02T04:58:22;17.90;99.90
41876;DHT22;27555;50.808;4.402;2023-07-02T05:00:47;18.10;99.90
41876;DHT22;27555;50.808;4.402;2023-07-02T05:03:13;18.10;99.90
41876;DHT22;27555;50.808;4.402;2023-07-02T05:05:38;18.00;99.90
41876;DHT22;27555;50.808;4.402;2023-07-02T05:08:04;18.00;99.90
41876;DHT22;27555;50.808;4.402;2023-07-02T05:10:30;18.10;99.90
41876;DHT22;27555;50.808;4.402;2023-07-02T05:12:55;18.30;99.90
41876;DHT22;27555;50.808;4.402;2023-07-02T05:15:21;18.40;99.90
41876;DHT22;27555;50.808;4.402;2023-07-02T05:17:46;18.60;99.90
41876;DHT22;27555;50.808;4.402;2023-07-02T05:20:12;18.50;99.90
41876;DHT22;27555;50.808;4.402;2023-07-02T05:22:38;18.50;99.90
41876;DHT22;27555;50.808;4.402;2023-07-02T05:25:04;18.60;99.90
41876;DHT22;27555;50.808;4.402;2023-07-02T05:27:29;18.60;99.90
41876;DHT22;27555;50.808;4.402;2023-07-02T05:29:55;18.30;99.90
41876;DHT22;27555;50.808;4.402;2023-07-02T05:32:20;18.20;99.90
41876;DHT22;27555;50.808;4.402;2023-07-02T05:34:46;18.20;99.90
41876;DHT22;27555;50.808;4.402;2023-07-02T05:37:11;18.60;99.90
41876;DHT22;27555;50.808;4.402;2023-07-02T05:39:37;18.60;99.90
41876;DHT22;27555;50.808;4.402;2023-07-02T05:42:04;18.50;99.90
41876;DHT22;27555;50.808;4.402;2023-07-02T05:44:29;18.60;99.90
41876;DHT22;27555;50.808;4.402;2023-07-02T05:46:55;18.90;99.90
41876;DHT22;27555;50.808;4.402;2023-07-02T05:49:20;19.10;99.90
41876;DHT22;27555;50.808;4.402;2023-07-02T05:51:46;19.00;99.90
41876;DHT22;27555;50.808;4.402;2023-07-02T05:54:12;19.20;99.90
41876;DHT22;27555;50.808;4.402;2023-07-02T05:56:37;19.10;99.90
41876;DHT22;27555;50.808;4.402;2023-07-02T05:59:03;19.10;99.90
41876;DHT22;27555;50.808;4.402;2023-07-02T06:01:28;19.20;99.90
41876;DHT22;27555;50.808;4.402;2023-07-02T06:03:54;19.40;99.90
41876;DHT22;27555;50.808;4.402;2023-07-02T06:06:21;19.50;99.90
41876;DHT22;27555;50.808;4.402;2023-07-02T06:08:47;19.60;99.90
41876;DHT22;27555;50.808;4.402;2023-07-02T06:11:13;19.60;99.90
41876;DHT22;27555;50.808;4.402;2023-07-02T06:13:39;19.50;99.90
41876;DHT22;27555;50.808;4.402;2023-07-02T06:16:04;19.60;99.90
41876;DHT22;27555;50.808;4.402;2023-07-02T06:18:30;19.60;99.90
41876;DHT22;27555;50.808;4.402;2023-07-02T06:20:55;19.90;99.90
41876;DHT22;27555;50.808;4.402;2023-07-02T06:23:21;20.10;99.90
41876;DHT22;27555;50.808;4.402;2023-07-02T06:25:47;20.10;99.90
41876;DHT22;27555;50.808;4.402;2023-07-02T06:28:12;20.20;99.90
41876;DHT22;27555;50.808;4.402;2023-07-02T06:30:38;20.50;99.90
41876;DHT22;27555;50.808;4.402;2023-07-02T06:33:03;20.60;99.90
41876;DHT22;27555;50.808;4.402;2023-07-02T06:35:29;20.40;99.90
41876;DHT22;27555;50.808;4.402;2023-07-02T06:37:54;20.40;99.90
41876;DHT22;27555;50.808;4.402;2023-07-02T06:40:20;20.20;99.90
41876;DHT22;27555;50.808;4.402;2023-07-02T06:42:47;20.40;99.90
41876;DHT22;27555;50.808;4.402;2023-07-02T06:45:13;20.40;99.90
41876;DHT22;27555;50.808;4.402;2023-07-02T06:47:39;20.80;99.90
41876;DHT22;27555;50.808;4.402;2023-07-02T06:50:05;21.30;99.90
41876;DHT22;27555;50.808;4.402;2023-07-02T06:52:30;21.20;99.90
41876;DHT22;27555;50.808;4.402;2023-07-02T06:54:56;20.80;99.90
41876;DHT22;27555;50.808;4.402;2023-07-02T06:57:21;20.90;99.90
41876;DHT22;27555;50.808;4.402;2023-07-02T06:59:48;21.00;99.90
41876;DHT22;27555;50.808;4.402;2023-07-02T07:02:14;21.10;99.90
41876;DHT22;27555;50.808;4.402;2023-07-02T07:04:39;21.00;99.90
41876;DHT22;27555;50.808;4.402;2023-07-02T07:07:05;21.50;99.90
41876;DHT22;27555;50.808;4.402;2023-07-02T07:09:31;21.80;99.90
41876;DHT22;27555;50.808;4.402;2023-07-02T07:11:57;22.00;99.90
41876;DHT22;27555;50.808;4.402;2023-07-02T07:14:22;22.30;99.90
41876;DHT22;27555;50.808;4.402;2023-07-02T07:16:48;22.70;99.10
41876;DHT22;27555;50.808;4.402;2023-07-02T07:19:14;22.70;98.50
41876;DHT22;27555;50.808;4.402;2023-07-02T07:21:39;22.60;98.00
41876;DHT22;27555;50.808;4.402;2023-07-02T07:24:05;22.50;98.00
41876;DHT22;27555;50.808;4.402;2023-07-02T07:26:31;22.60;97.30
41876;DHT22;27555;50.808;4.402;2023-07-02T07:28:57;22.40;97.10
41876;DHT22;27555;50.808;4.402;2023-07-02T07:31:23;22.10;97.70
41876;DHT22;27555;50.808;4.402;2023-07-02T07:33:49;22.30;96.50
41876;DHT22;27555;50.808;4.402;2023-07-02T07:36:14;22.00;96.40
41876;DHT22;27555;50.808;4.402;2023-07-02T07:38:40;21.30;97.10
41876;DHT22;27555;50.808;4.402;2023-07-02T07:41:08;21.20;97.70
41876;DHT22;27555;50.808;4.402;2023-07-02T07:43:34;21.50;97.40
41876;DHT22;27555;50.808;4.402;2023-07-02T07:45:59;22.00;96.00
41876;DHT22;27555;50.808;4.402;2023-07-02T07:48:25;22.40;95.60
41876;DHT22;27555;50.808;4.402;2023-07-02T07:50:51;22.60;95.30
41876;DHT22;27555;50.808;4.402;2023-07-02T07:53:16;22.70;95.10
41876;DHT22;27555;50.808;4.402;2023-07-02T07:55:42;22.50;95.20
41876;DHT22;27555;50.808;4.402;2023-07-02T07:58:07;22.50;95.50
41876;DHT22;27555;50.808;4.402;2023-07-02T08:00:33;22.80;95.00
41876;DHT22;27555;50.808;4.402;2023-07-02T08:02:58;23.10;94.70
41876;DHT22;27555;50.808;4.402;2023-07-02T08:05:26;23.00;94.70
41876;DHT22;27555;50.808;4.402;2023-07-02T08:07:51;23.10;94.70
41876;DHT22;27555;50.808;4.402;2023-07-02T08:10:19;23.00;94.60
41876;DHT22;27555;50.808;4.402;2023-07-02T08:12:45;22.50;95.20
41876;DHT22;27555;50.808;4.402;2023-07-02T08:15:12;23.00;94.80
41876;DHT22;27555;50.808;4.402;2023-07-02T08:17:38;23.30;94.30
41876;DHT22;27555;50.808;4.402;2023-07-02T08:20:04;23.70;93.50
41876;DHT22;27555;50.808;4.402;2023-07-02T08:22:30;23.80;93.00
41876;DHT22;27555;50.808;4.402;2023-07-02T08:24:56;23.80;92.90
41876;DHT22;27555;50.808;4.402;2023-07-02T08:27:21;24.00;92.60
41876;DHT22;27555;50.808;4.402;2023-07-02T08:29:48;23.40;92.90
41876;DHT22;27555;50.808;4.402;2023-07-02T08:32:15;23.20;93.50
41876;DHT22;27555;50.808;4.402;2023-07-02T08:34:40;23.40;93.40
41876;DHT22;27555;50.808;4.402;2023-07-02T08:37:06;23.70;92.70
41876;DHT22;27555;50.808;4.402;2023-07-02T08:39:31;23.50;92.80
41876;DHT22;27555;50.808;4.402;2023-07-02T08:41:57;23.20;92.50
41876;DHT22;27555;50.808;4.402;2023-07-02T08:44:23;22.70;92.70
41876;DHT22;27555;50.808;4.402;2023-07-02T08:46:50;22.10;93.80
41876;DHT22;27555;50.808;4.402;2023-07-02T08:49:17;22.10;93.90
41876;DHT22;27555;50.808;4.402;2023-07-02T08:51:45;22.20;93.90
41876;DHT22;27555;50.808;4.402;2023-07-02T08:54:11;21.90;94.30
41876;DHT22;27555;50.808;4.402;2023-07-02T08:56:36;22.20;94.40
41876;DHT22;27555;50.808;4.402;2023-07-02T08:59:02;22.10;94.90
41876;DHT22;27555;50.808;4.402;2023-07-02T09:01:27;22.60;94.90
41876;DHT22;27555;50.808;4.402;2023-07-02T09:03:58;23.20;94.10
41876;DHT22;27555;50.808;4.402;2023-07-02T09:06:27;23.60;93.70
41876;DHT22;27555;50.808;4.402;2023-07-02T09:08:52;23.70;92.80
41876;DHT22;27555;50.808;4.402;2023-07-02T09:11:18;23.40;92.70
41876;DHT22;27555;50.808;4.402;2023-07-02T09:13:49;22.90;92.90
41876;DHT22;27555;50.808;4.402;2023-07-02T09:16:27;22.60;93.30
41876;DHT22;27555;50.808;4.402;2023-07-02T09:19:00;22.50;93.10
41876;DHT22;27555;50.808;4.402;2023-07-02T09:21:28;22.10;93.40
41876;DHT22;27555;50.808;4.402;2023-07-02T09:23:54;21.90;94.20
41876;DHT22;27555;50.808;4.402;2023-07-02T09:26:23;21.70;94.60
41876;DHT22;27555;50.808;4.402;2023-07-02T09:28:49;22.00;94.70
41876;DHT22;27555;50.808;4.402;2023-07-02T09:31:15;22.80;93.80
41876;DHT22;27555;50.808;4.402;2023-07-02T09:33:41;23.40;93.10
41876;DHT22;27555;50.808;4.402;2023-07-02T09:36:06;23.70;91.70
41876;DHT22;27555;50.808;4.402;2023-07-02T09:38:32;24.40;90.60
41876;DHT22;27555;50.808;4.402;2023-07-02T09:40:58;24.60;90.30
41876;DHT22;27555;50.808;4.402;2023-07-02T09:43:25;25.50;88.70
41876;DHT22;27555;50.808;4.402;2023-07-02T09:45:54;25.10;88.70
41876;DHT22;27555;50.808;4.402;2023-07-02T09:48:24;24.40;89.80
41876;DHT22;27555;50.808;4.402;2023-07-02T09:50:53;24.00;90.20
41876;DHT22;27555;50.808;4.402;2023-07-02T09:53:19;24.00;89.50
41876;DHT22;27555;50.808;4.402;2023-07-02T09:55:45;24.60;88.70
41876;DHT22;27555;50.808;4.402;2023-07-02T09:58:11;24.50;88.80
41876;DHT22;27555;50.808;4.402;2023-07-02T10:00:39;24.50;88.40
41876;DHT22;27555;50.808;4.402;2023-07-02T10:03:05;24.50;88.70
41876;DHT22;27555;50.808;4.402;2023-07-02T10:05:32;24.50;87.20
41876;DHT22;27555;50.808;4.402;2023-07-02T10:07:59;24.50;87.40
41876;DHT22;27555;50.808;4.402;2023-07-02T10:10:36;24.90;86.10
41876;DHT22;27555;50.808;4.402;2023-07-02T10:13:02;24.80;86.10
41876;DHT22;27555;50.808;4.402;2023-07-02T10:15:29;24.50;86.20
41876;DHT22;27555;50.808;4.402;2023-07-02T10:17:59;24.00;87.90
41876;DHT22;27555;50.808;4.402;2023-07-02T10:20:40;23.80;89.20
41876;DHT22;27555;50.808;4.402;2023-07-02T10:23:08;24.00;88.30
41876;DHT22;27555;50.808;4.402;2023-07-02T10:25:35;24.10;88.70
41876;DHT22;27555;50.808;4.402;2023-07-02T10:28:18;24.50;87.90
41876;DHT22;27555;50.808;4.402;2023-07-02T10:30:45;25.50;87.20
41876;DHT22;27555;50.808;4.402;2023-07-02T10:33:16;26.20;85.20
41876;DHT22;27555;50.808;4.402;2023-07-02T10:35:45;25.60;84.90
41876;DHT22;27555;50.808;4.402;2023-07-02T10:38:17;24.80;85.80
41876;DHT22;27555;50.808;4.402;2023-07-02T10:40:43;24.10;87.20
41876;DHT22;27555;50.808;4.402;2023-07-02T10:43:09;23.90;87.90
41876;DHT22;27555;50.808;4.402;2023-07-02T10:45:35;23.70;87.70
41876;DHT22;27555;50.808;4.402;2023-07-02T10:48:13;23.60;88.60
41876;DHT22;27555;50.808;4.402;2023-07-02T10:50:39;23.80;88.40
41876;DHT22;27555;50.808;4.402;2023-07-02T10:53:05;24.30;87.70
41876;DHT22;27555;50.808;4.402;2023-07-02T10:55:30;25.80;85.90
41876;DHT22;27555;50.808;4.402;2023-07-02T10:58:07;26.80;84.60
41876;DHT22;27555;50.808;4.402;2023-07-02T11:00:49;25.90;84.70
41876;DHT22;27555;50.808;4.402;2023-07-02T11:03:23;24.80;85.80
41876;DHT22;27555;50.808;4.402;2023-07-02T11:05:50;25.10;85.40
41876;DHT22;27555;50.808;4.402;2023-07-02T11:08:16;25.20;85.90
41876;DHT22;27555;50.808;4.402;2023-07-02T11:10:42;25.70;83.20
41876;DHT22;27555;50.808;4.402;2023-07-02T11:13:18;25.50;82.00
41876;DHT22;27555;50.808;4.402;2023-07-02T11:15:44;25.90;81.60
41876;DHT22;27555;50.808;4.402;2023-07-02T11:18:15;26.00;81.90
41876;DHT22;27555;50.808;4.402;2023-07-02T11:20:43;26.10;82.20
41876;DHT22;27555;50.808;4.402;2023-07-02T11:23:18;25.70;82.20
41876;DHT22;27555;50.808;4.402;2023-07-02T11:26:01;25.70;82.00
41876;DHT22;27555;50.808;4.402;2023-07-02T11:28:28;25.30;83.10
41876;DHT22;27555;50.808;4.402;2023-07-02T11:30:54;25.30;83.20
41876;DHT22;27555;50.808;4.402;2023-07-02T11:33:37;25.20;81.30
41876;DHT22;27555;50.808;4.402;2023-07-02T11:36:04;25.10;82.20
41876;DHT22;27555;50.808;4.402;2023-07-02T11:38:30;25.00;81.20
41876;DHT22;27555;50.808;4.402;2023-07-02T11:40:55;24.80;81.70
41876;DHT22;27555;50.808;4.402;2023-07-02T11:43:21;25.60;81.70
41876;DHT22;27555;50.808;4.402;2023-07-02T11:45:46;26.00;80.40
41876;DHT22;27555;50.808;4.402;2023-07-02T11:48:12;25.70;80.10
41876;DHT22;27555;50.808;4.402;2023-07-02T11:50:38;25.20;80.30
41876;DHT22;27555;50.808;4.402;2023-07-02T11:53:04;25.40;80.80
41876;DHT22;27555;50.808;4.402;2023-07-02T11:55:29;25.60;80.80
41876;DHT22;27555;50.808;4.402;2023-07-02T11:57:55;25.50;80.70
41876;DHT22;27555;50.808;4.402;2023-07-02T12:00:20;25.40;80.70
41876;DHT22;27555;50.808;4.402;2023-07-02T12:02:46;25.90;80.50
41876;DHT22;27555;50.808;4.402;2023-07-02T12:05:12;27.00;79.30
41876;DHT22;27555;50.808;4.402;2023-07-02T12:07:37;27.40;79.20
41876;DHT22;27555;50.808;4.402;2023-07-02T12:10:03;27.10;79.60
41876;DHT22;27555;50.808;4.402;2023-07-02T12:12:29;26.70;77.70
41876;DHT22;27555;50.808;4.402;2023-07-02T12:14:54;26.10;76.80
41876;DHT22;27555;50.808;4.402;2023-07-02T12:17:20;26.40;77.10
41876;DHT22;27555;50.808;4.402;2023-07-02T12:19:46;25.80;77.80
41876;DHT22;27555;50.808;4.402;2023-07-02T12:22:11;25.60;78.50
41876;DHT22;27555;50.808;4.402;2023-07-02T12:24:37;25.60;78.60
41876;DHT22;27555;50.808;4.402;2023-07-02T12:27:06;25.60;78.80
41876;DHT22;27555;50.808;4.402;2023-07-02T12:29:32;25.00;79.70
41876;DHT22;27555;50.808;4.402;2023-07-02T12:31:57;24.60;80.90
41876;DHT22;27555;50.808;4.402;2023-07-02T12:34:23;25.00;79.40
41876;DHT22;27555;50.808;4.402;2023-07-02T12:36:49;25.40;78.80
41876;DHT22;27555;50.808;4.402;2023-07-02T12:39:14;25.50;79.10
41876;DHT22;27555;50.808;4.402;2023-07-02T12:41:40;25.60;79.60
41876;DHT22;27555;50.808;4.402;2023-07-02T12:44:06;25.70;79.50
41876;DHT22;27555;50.808;4.402;2023-07-02T12:46:31;25.10;80.40
41876;DHT22;27555;50.808;4.402;2023-07-02T12:48:57;25.00;81.00
41876;DHT22;27555;50.808;4.402;2023-07-02T12:51:22;25.10;81.00
41876;DHT22;27555;50.808;4.402;2023-07-02T12:53:48;24.90;81.60
41876;DHT22;27555;50.808;4.402;2023-07-02T12:56:14;24.90;81.30
41876;DHT22;27555;50.808;4.402;2023-07-02T12:58:39;25.10;80.60
41876;DHT22;27555;50.808;4.402;2023-07-02T13:01:05;24.60;80.70
41876;DHT22;27555;50.808;4.402;2023-07-02T13:03:31;24.60;80.40
41876;DHT22;27555;50.808;4.402;2023-07-02T13:05:56;24.70;80.10
41876;DHT22;27555;50.808;4.402;2023-07-02T13:08:22;24.70;80.20
41876;DHT22;27555;50.808;4.402;2023-07-02T13:10:47;24.50;81.40
41876;DHT22;27555;50.808;4.402;2023-07-02T13:13:13;24.50;80.50
41876;DHT22;27555;50.808;4.402;2023-07-02T13:15:38;24.60;79.70
41876;DHT22;27555;50.808;4.402;2023-07-02T13:18:04;24.50;80.00
41876;DHT22;27555;50.808;4.402;2023-07-02T13:20:30;24.50;80.40
41876;DHT22;27555;50.808;4.402;2023-07-02T13:22:55;24.70;80.00
41876;DHT22;27555;50.808;4.402;2023-07-02T13:25:21;24.90;80.10
41876;DHT22;27555;50.808;4.402;2023-07-02T13:27:47;25.10;80.00
41876;DHT22;27555;50.808;4.402;2023-07-02T13:30:12;24.90;81.00
41876;DHT22;27555;50.808;4.402;2023-07-02T13:32:38;24.90;79.40
41876;DHT22;27555;50.808;4.402;2023-07-02T13:35:04;24.80;80.40
41876;DHT22;27555;50.808;4.402;2023-07-02T13:37:29;24.30;80.20
41876;DHT22;27555;50.808;4.402;2023-07-02T13:39:55;24.50;81.30
41876;DHT22;27555;50.808;4.402;2023-07-02T13:42:20;24.80;79.90
41876;DHT22;27555;50.808;4.402;2023-07-02T13:44:46;25.00;79.80
41876;DHT22;27555;50.808;4.402;2023-07-02T13:47:12;25.20;79.40
41876;DHT22;27555;50.808;4.402;2023-07-02T13:49:37;25.20;78.70
41876;DHT22;27555;50.808;4.402;2023-07-02T13:52:03;25.50;78.70
41876;DHT22;27555;50.808;4.402;2023-07-02T13:54:29;25.60;79.00
41876;DHT22;27555;50.808;4.402;2023-07-02T13:56:56;25.60;79.60
41876;DHT22;27555;50.808;4.402;2023-07-02T13:59:23;25.00;78.90
41876;DHT22;27555;50.808;4.402;2023-07-02T14:01:49;25.00;79.20
41876;DHT22;27555;50.808;4.402;2023-07-02T14:04:16;24.90;80.10
41876;DHT22;27555;50.808;4.402;2023-07-02T14:06:42;25.10;80.50
41876;DHT22;27555;50.808;4.402;2023-07-02T14:09:08;25.30;79.80
41876;DHT22;27555;50.808;4.402;2023-07-02T14:11:39;25.10;79.80
41876;DHT22;27555;50.808;4.402;2023-07-02T14:14:05;25.20;79.40
41876;DHT22;27555;50.808;4.402;2023-07-02T14:16:31;24.80;80.20
41876;DHT22;27555;50.808;4.402;2023-07-02T14:18:57;24.30;81.00
41876;DHT22;27555;50.808;4.402;2023-07-02T14:21:22;24.40;82.20
41876;DHT22;27555;50.808;4.402;2023-07-02T14:23:48;24.90;81.20
41876;DHT22;27555;50.808;4.402;2023-07-02T14:26:13;25.10;80.20
41876;DHT22;27555;50.808;4.402;2023-07-02T14:28:39;25.10;80.50
41876;DHT22;27555;50.808;4.402;2023-07-02T14:31:06;25.10;80.20
41876;DHT22;27555;50.808;4.402;2023-07-02T14:33:34;25.20;80.10
41876;DHT22;27555;50.808;4.402;2023-07-02T14:36:00;25.20;80.40
41876;DHT22;27555;50.808;4.402;2023-07-02T14:38:26;25.00;81.30
41876;DHT22;27555;50.808;4.402;2023-07-02T14:40:53;24.90;80.80
41876;DHT22;27555;50.808;4.402;2023-07-02T14:43:20;24.40;81.50
41876;DHT22;27555;50.808;4.402;2023-07-02T14:45:53;24.50;80.60
41876;DHT22;27555;50.808;4.402;2023-07-02T14:48:20;24.70;80.20
41876;DHT22;27555;50.808;4.402;2023-07-02T14:50:49;24.80;80.90
41876;DHT22;27555;50.808;4.402;2023-07-02T14:53:16;25.00;79.80
41876;DHT22;27555;50.808;4.402;2023-07-02T14:55:41;24.50;80.80
41876;DHT22;27555;50.808;4.402;2023-07-02T14:58:07;24.50;81.40
41876;DHT22;27555;50.808;4.402;2023-07-02T15:00:33;24.60;81.20
41876;DHT22;27555;50.808;4.402;2023-07-02T15:03:00;24.60;81.30
41876;DHT22;27555;50.808;4.402;2023-07-02T15:05:26;25.00;80.30
41876;DHT22;27555;50.808;4.402;2023-07-02T15:07:51;24.90;80.40
41876;DHT22;27555;50.808;4.402;2023-07-02T15:10:17;25.20;80.70
41876;DHT22;27555;50.808;4.402;2023-07-02T15:12:43;25.30;81.30
41876;DHT22;27555;50.808;4.402;2023-07-02T15:15:09;25.60;79.70
41876;DHT22;27555;50.808;4.402;2023-07-02T15:17:35;25.80;78.60
41876;DHT22;27555;50.808;4.402;2023-07-02T15:20:01;25.70;78.30
41876;DHT22;27555;50.808;4.402;2023-07-02T15:22:29;25.30;79.00
41876;DHT22;27555;50.808;4.402;2023-07-02T15:24:55;25.20;79.40
41876;DHT22;27555;50.808;4.402;2023-07-02T15:27:20;24.80;79.60